Time;durP1;ratioP1;P1;durP2;ratioP2;P2;SDS_P1;SDS_P2;PMS_P1;PMS_P2;Temp;Humidity;BMP_temperature;BMP_pressure;BME280_temperature;BME280_humidity;BME280_pressure;Samples;Min_cycle;Max_cycle;Signal;HPM_P1;HPM_P2
2022/01/11 00:00:27;;;;;;;33.30;16.73;;;3.50;99.90;;;;;;5074002;28;20648;-62
2022/01/11 00:02:55;;;;;;;37.70;17.40;;;3.50;99.90;;;;;;5074783;28;20277;-62
2022/01/11 00:05:32;;;;;;;37.80;19.07;;;3.50;99.90;;;;;;5091201;28;20655;-62
2022/01/11 00:07:59;;;;;;;40.93;19.47;;;3.50;99.90;;;;;;5091717;28;20648;-62
2022/01/11 00:10:31;;;;;;;34.70;17.10;;;3.40;99.90;;;;;;5077332;28;20262;-62
2022/01/11 00:12:59;;;;;;;36.17;18.13;;;3.40;99.90;;;;;;5092438;28;20190;-62
2022/01/11 00:15:26;;;;;;;38.40;19.30;;;3.50;99.90;;;;;;5091639;28;20237;-62
2022/01/11 00:17:52;;;;;;;37.43;20.30;;;3.70;99.90;;;;;;5068702;28;20189;-62
2022/01/11 00:20:20;;;;;;;42.80;20.33;;;3.70;99.90;;;;;;5086826;28;20696;-62
2022/01/11 00:25:30;;;;;;;32.73;17.40;;;3.80;99.90;;;;;;5073758;28;20254;-61
2022/01/11 00:27:56;;;;;;;28.37;15.33;;;3.90;99.90;;;;;;5057548;28;20224;-62
2022/01/11 00:30:23;;;;;;;29.70;14.73;;;3.70;99.90;;;;;;5072905;28;20637;-62
2022/01/11 00:32:53;;;;;;;26.13;13.93;;;3.60;99.90;;;;;;5083286;28;20239;-61
2022/01/11 00:35:27;;;;;;;28.27;15.07;;;3.80;99.90;;;;;;5059566;28;20209;-62
2022/01/11 00:37:53;;;;;;;28.83;15.57;;;3.60;99.90;;;;;;5073431;28;20189;-62
2022/01/11 00:40:19;;;;;;;28.00;16.00;;;3.50;99.90;;;;;;5062414;28;20203;-62
2022/01/11 00:42:45;;;;;;;34.97;16.07;;;3.60;99.90;;;;;;5057787;28;20299;-61
2022/01/11 00:45:12;;;;;;;27.70;14.00;;;3.60;99.90;;;;;;5073788;28;20188;-70
2022/01/11 00:47:38;;;;;;;28.87;15.07;;;3.70;99.90;;;;;;5055644;28;20277;-61
2022/01/11 00:50:06;;;;;;;29.37;13.90;;;3.70;99.90;;;;;;5069811;28;20283;-62
2022/01/11 00:52:31;;;;;;;25.13;13.53;;;3.50;99.90;;;;;;5055399;28;20514;-62
2022/01/11 00:54:57;;;;;;;23.87;15.53;;;3.30;99.90;;;;;;5091551;28;20192;-62
2022/01/11 00:57:23;;;;;;;30.90;14.87;;;3.40;99.90;;;;;;5080954;28;20603;-62
2022/01/11 00:59:49;;;;;;;28.87;14.27;;;3.40;99.90;;;;;;5073750;28;20218;-62
2022/01/11 01:02:14;;;;;;;21.93;13.17;;;3.40;99.90;;;;;;5090619;28;20671;-62
2022/01/11 01:04:40;;;;;;;25.27;13.90;;;3.30;99.90;;;;;;5067448;28;20638;-62
2022/01/11 01:07:06;;;;;;;22.53;13.30;;;3.40;99.90;;;;;;5086761;28;20634;-62
2022/01/11 01:09:43;;;;;;;21.10;11.93;;;3.40;99.90;;;;;;5078730;28;20196;-62
2022/01/11 01:12:09;;;;;;;25.40;14.13;;;3.50;99.90;;;;;;5089334;28;20230;-61
2022/01/11 01:14:35;;;;;;;27.73;14.33;;;3.70;99.90;;;;;;5068410;28;20490;-61
2022/01/11 01:17:00;;;;;;;23.73;12.60;;;3.90;99.90;;;;;;5087344;28;20264;-62
2022/01/11 01:19:27;;;;;;;26.50;13.80;;;3.80;99.90;;;;;;5073787;28;20196;-64
2022/01/11 01:21:55;;;;;;;27.50;13.23;;;3.60;99.90;;;;;;5091737;28;20193;-61
2022/01/11 01:24:21;;;;;;;23.33;12.10;;;3.50;99.90;;;;;;5090995;28;20215;-62
2022/01/11 01:26:48;;;;;;;26.43;12.37;;;3.60;99.90;;;;;;5091356;28;20184;-61
2022/01/11 01:29:14;;;;;;;21.87;12.70;;;3.60;99.90;;;;;;5093515;28;20192;-62
2022/01/11 01:31:39;;;;;;;23.33;12.13;;;3.50;99.90;;;;;;5086873;28;20193;-61
2022/01/11 01:34:06;;;;;;;26.97;12.90;;;3.60;99.90;;;;;;5076785;28;20193;-61
2022/01/11 01:36:32;;;;;;;21.63;11.83;;;3.50;99.90;;;;;;5063679;28;20185;-62
2022/01/11 01:38:58;;;;;;;22.23;11.30;;;3.50;99.90;;;;;;5095269;28;20559;-62
2022/01/11 01:41:24;;;;;;;22.23;12.83;;;3.50;99.90;;;;;;5076729;28;20199;-68
2022/01/11 01:43:54;;;;;;;21.93;11.57;;;3.30;99.90;;;;;;5089265;28;20241;-62
2022/01/11 01:46:21;;;;;;;20.10;10.57;;;3.20;99.90;;;;;;5076230;28;20181;-62
2022/01/11 01:48:47;;;;;;;16.70;10.27;;;3.10;99.90;;;;;;5076250;28;20541;-62
2022/01/11 01:51:14;;;;;;;23.90;11.63;;;3.10;99.90;;;;;;5060517;28;20192;-62
2022/01/11 01:53:43;;;;;;;20.60;12.33;;;3.20;99.90;;;;;;5076877;28;20199;-62
2022/01/11 01:56:10;;;;;;;18.83;11.43;;;3.10;99.90;;;;;;5077396;28;20638;-62
2022/01/11 01:58:37;;;;;;;21.90;11.70;;;3.20;99.90;;;;;;5095350;28;20185;-62
2022/01/11 02:01:04;;;;;;;22.77;11.27;;;3.20;99.90;;;;;;5069018;28;20185;-62
2022/01/11 02:03:38;;;;;;;18.87;11.30;;;3.20;99.90;;;;;;5092541;28;20220;-62
2022/01/11 02:06:09;;;;;;;23.23;10.97;;;3.10;99.90;;;;;;5082052;28;20647;-62
2022/01/11 02:08:35;;;;;;;19.73;10.63;;;3.10;99.90;;;;;;5094757;28;20184;-62
2022/01/11 02:11:01;;;;;;;21.83;11.23;;;3.10;99.90;;;;;;5076255;28;20646;-62
2022/01/11 02:13:27;;;;;;;19.53;11.43;;;3.30;99.90;;;;;;5094474;28;20189;-62
2022/01/11 02:15:54;;;;;;;19.97;11.07;;;3.20;99.90;;;;;;5076909;28;20215;-61
2022/01/11 02:18:24;;;;;;;18.37;10.83;;;3.20;99.90;;;;;;5082117;28;20181;-62
2022/01/11 02:20:51;;;;;;;14.77;10.40;;;3.20;99.90;;;;;;5057749;28;20546;-61
2022/01/11 02:23:18;;;;;;;19.67;10.57;;;3.30;99.90;;;;;;5060556;28;20247;-62
2022/01/11 02:25:45;;;;;;;20.37;10.87;;;3.40;99.90;;;;;;5068626;28;20213;-62
2022/01/11 02:28:13;;;;;;;18.23;11.90;;;3.30;99.90;;;;;;5058675;28;20254;-62
2022/01/11 02:30:39;;;;;;;18.30;11.63;;;3.30;99.90;;;;;;5083883;28;20184;-62
2022/01/11 02:33:12;;;;;;;23.43;10.77;;;3.20;99.90;;;;;;5086093;28;20600;-62
2022/01/11 02:35:38;;;;;;;19.80;11.90;;;3.20;99.90;;;;;;5061993;28;20189;-62
2022/01/11 02:38:04;;;;;;;22.93;12.43;;;3.20;99.90;;;;;;5093877;28;20702;-62
2022/01/11 02:40:29;;;;;;;19.03;11.17;;;3.20;99.90;;;;;;5090725;28;21257;-62
2022/01/11 02:42:55;;;;;;;20.43;10.17;;;3.10;99.90;;;;;;5082810;28;20216;-62
2022/01/11 02:45:21;;;;;;;22.60;14.17;;;3.00;99.90;;;;;;5083120;28;20189;-60
2022/01/11 02:47:49;;;;;;;19.23;10.13;;;3.10;99.90;;;;;;5040381;28;20181;-60
2022/01/11 02:50:16;;;;;;;21.00;11.20;;;3.20;99.90;;;;;;5086453;28;20186;-72
2022/01/11 02:52:42;;;;;;;23.60;14.27;;;3.40;99.90;;;;;;5075012;28;20189;-60
2022/01/11 02:55:14;;;;;;;20.00;11.23;;;3.30;99.90;;;;;;5076224;28;20593;-60
2022/01/11 02:57:40;;;;;;;20.53;10.63;;;3.20;99.90;;;;;;5078437;28;20541;-61
2022/01/11 03:00:12;;;;;;;19.00;11.33;;;3.20;99.90;;;;;;5088350;28;20181;-60
2022/01/11 03:02:38;;;;;;;21.27;12.37;;;3.10;99.90;;;;;;5083930;28;20212;-60
2022/01/11 03:05:06;;;;;;;25.77;11.90;;;3.00;99.90;;;;;;5075494;28;20193;-60
2022/01/11 03:07:32;;;;;;;24.90;13.07;;;3.00;99.90;;;;;;5093295;28;20249;-61
2022/01/11 03:10:08;;;;;;;19.53;10.63;;;3.10;99.90;;;;;;5093449;28;20265;-60
2022/01/11 03:12:35;;;;;;;24.20;11.70;;;3.10;99.90;;;;;;5063100;28;20653;-60
2022/01/11 03:15:01;;;;;;;21.77;11.83;;;3.20;99.90;;;;;;5062152;28;20180;-60
2022/01/11 03:17:27;;;;;;;21.37;10.77;;;3.10;99.90;;;;;;5093424;28;20601;-61
2022/01/11 03:19:53;;;;;;;25.87;12.57;;;3.00;99.90;;;;;;5091661;28;20657;-60
2022/01/11 03:22:20;;;;;;;17.93;10.93;;;2.80;99.90;;;;;;5093071;28;20217;-64
2022/01/11 03:24:45;;;;;;;17.57;10.53;;;2.90;99.90;;;;;;5075800;28;20189;-60
2022/01/11 03:27:11;;;;;;;22.40;11.37;;;3.00;99.90;;;;;;5079371;28;20195;-60
2022/01/11 03:29:40;;;;;;;18.07;10.90;;;3.00;99.90;;;;;;5086854;28;20700;-60
2022/01/11 03:32:07;;;;;;;18.20;10.73;;;2.90;99.90;;;;;;5074265;28;20186;-68
2022/01/11 03:34:33;;;;;;;23.40;10.90;;;3.10;99.90;;;;;;5085339;28;20700;-60
2022/01/11 03:36:59;;;;;;;22.70;11.03;;;3.00;99.90;;;;;;5089586;28;20177;-60
2022/01/11 03:39:26;;;;;;;20.10;10.43;;;3.00;99.90;;;;;;5093314;28;20180;-60
2022/01/11 03:41:52;;;;;;;19.30;10.47;;;3.00;99.90;;;;;;5059380;28;20541;-61
2022/01/11 03:44:18;;;;;;;23.13;11.00;;;3.00;99.90;;;;;;5069499;28;20636;-61
2022/01/11 03:46:43;;;;;;;20.53;10.43;;;2.90;99.90;;;;;;5060816;28;20280;-60
2022/01/11 03:49:09;;;;;;;21.80;10.37;;;2.90;99.90;;;;;;5087712;28;20185;-60
2022/01/11 03:51:38;;;;;;;20.67;11.40;;;3.00;99.90;;;;;;5073334;28;20185;-60
2022/01/11 03:54:11;;;;;;;22.93;11.13;;;3.00;99.90;;;;;;5073316;28;20197;-60
2022/01/11 03:56:37;;;;;;;23.20;12.43;;;3.10;99.90;;;;;;5085214;28;20209;-60
2022/01/11 03:59:08;;;;;;;22.30;11.77;;;3.00;99.90;;;;;;5071161;28;20201;-60
2022/01/11 04:01:35;;;;;;;22.77;10.93;;;2.90;99.90;;;;;;5043271;28;20181;-60
2022/01/11 04:04:02;;;;;;;17.63;8.83;;;2.80;99.90;;;;;;5082304;28;20614;-60
2022/01/11 04:06:28;;;;;;;17.30;10.60;;;2.70;99.90;;;;;;5074727;28;20321;-61
2022/01/11 04:08:54;;;;;;;23.77;10.93;;;2.40;99.90;;;;;;5091946;28;20267;-60
2022/01/11 04:11:20;;;;;;;17.10;10.60;;;2.30;99.90;;;;;;5077804;28;20654;-60
2022/01/11 04:13:47;;;;;;;16.97;9.53;;;2.40;99.90;;;;;;5088598;28;20203;-60
2022/01/11 04:16:13;;;;;;;25.47;9.47;;;2.50;99.90;;;;;;5069684;28;20186;-59
2022/01/11 04:18:39;;;;;;;19.77;10.67;;;2.60;99.90;;;;;;5061071;28;20641;-60
2022/01/11 04:21:05;;;;;;;19.37;9.67;;;2.60;99.90;;;;;;5092001;28;20180;-60
2022/01/11 04:23:32;;;;;;;18.93;10.10;;;2.50;99.90;;;;;;5085092;28;20267;-60
2022/01/11 04:25:59;;;;;;;16.73;9.00;;;2.40;99.90;;;;;;5073828;28;20196;-60
2022/01/11 04:28:26;;;;;;;19.50;9.60;;;2.40;99.90;;;;;;5073706;28;20181;-60
2022/01/11 04:30:52;;;;;;;20.70;11.17;;;2.50;99.90;;;;;;5092080;28;20267;-60
2022/01/11 04:33:19;;;;;;;17.77;10.23;;;2.50;99.90;;;;;;5084605;28;20196;-60
2022/01/11 04:35:48;;;;;;;19.27;10.67;;;2.40;99.90;;;;;;5088219;28;20184;-60
2022/01/11 04:38:17;;;;;;;19.30;9.83;;;2.40;99.90;;;;;;5093330;28;20601;-60
2022/01/11 04:40:42;;;;;;;13.83;8.73;;;2.30;99.90;;;;;;5093316;28;20267;-60
2022/01/11 04:43:08;;;;;;;24.83;11.13;;;2.20;99.90;;;;;;5057626;28;20300;-60
2022/01/11 04:45:34;;;;;;;15.47;8.73;;;2.20;99.90;;;;;;5089042;28;20220;-60
2022/01/11 04:47:59;;;;;;;16.57;10.57;;;2.30;99.90;;;;;;5068674;28;20287;-61
2022/01/11 04:50:27;;;;;;;21.63;9.90;;;2.40;99.90;;;;;;5058288;28;20193;-61
2022/01/11 04:52:53;;;;;;;18.00;9.57;;;2.40;99.90;;;;;;5072705;28;20670;-61
2022/01/11 04:55:19;;;;;;;18.83;10.43;;;2.50;99.90;;;;;;5086954;28;20246;-61
2022/01/11 04:57:45;;;;;;;17.03;9.77;;;2.70;99.90;;;;;;5041413;28;20189;-61
2022/01/11 05:00:11;;;;;;;17.70;10.20;;;2.60;99.90;;;;;;5068271;28;20192;-61
2022/01/11 05:02:37;;;;;;;12.63;8.67;;;2.60;99.90;;;;;;5047460;28;20220;-61
2022/01/11 05:05:04;;;;;;;23.63;11.93;;;2.70;99.90;;;;;;5088606;28;20185;-61
2022/01/11 05:07:30;;;;;;;21.57;10.23;;;2.70;99.90;;;;;;5088558;28;20184;-74
2022/01/11 05:09:56;;;;;;;17.30;9.87;;;2.80;99.90;;;;;;5078263;28;20271;-64
2022/01/11 05:12:22;;;;;;;16.43;9.90;;;2.90;99.90;;;;;;5077415;28;20211;-65
2022/01/11 05:14:48;;;;;;;18.93;10.43;;;2.90;99.90;;;;;;5094533;28;20184;-65
2022/01/11 05:17:14;;;;;;;21.03;11.00;;;2.90;99.90;;;;;;5096133;28;20177;-63
2022/01/11 05:19:40;;;;;;;20.83;10.97;;;2.90;99.90;;;;;;5095975;28;20192;-64
2022/01/11 05:22:06;;;;;;;24.00;10.50;;;2.90;99.90;;;;;;5094372;28;20189;-63
2022/01/11 05:24:31;;;;;;;21.53;10.83;;;2.90;99.90;;;;;;5084977;28;20549;-63
2022/01/11 05:26:57;;;;;;;16.17;9.07;;;3.00;99.90;;;;;;5083995;28;20192;-65
2022/01/11 05:29:23;;;;;;;23.60;10.27;;;3.00;99.90;;;;;;5092781;28;20243;-63
2022/01/11 05:31:48;;;;;;;23.10;11.13;;;2.90;99.90;;;;;;5088723;28;20180;-64
2022/01/11 05:34:14;;;;;;;20.30;10.17;;;2.90;99.90;;;;;;5066545;28;20270;-64
2022/01/11 05:36:40;;;;;;;24.53;10.83;;;2.90;99.90;;;;;;5076556;28;20220;-64
2022/01/11 05:39:06;;;;;;;20.90;10.63;;;3.00;99.90;;;;;;5092293;28;20189;-64
2022/01/11 05:41:32;;;;;;;14.23;9.80;;;3.00;99.90;;;;;;5076496;28;20558;-64
2022/01/11 05:43:59;;;;;;;21.27;12.13;;;3.10;99.90;;;;;;5076400;28;20204;-64
2022/01/11 05:46:25;;;;;;;14.50;9.83;;;3.20;99.90;;;;;;5095267;28;20614;-64
2022/01/11 05:48:50;;;;;;;18.87;10.10;;;3.20;99.90;;;;;;5095977;28;20207;-64
2022/01/11 05:51:16;;;;;;;17.43;10.60;;;3.10;99.90;;;;;;5076837;28;20212;-64
2022/01/11 05:53:43;;;;;;;19.23;10.13;;;3.20;99.90;;;;;;5088656;28;20190;-63
2022/01/11 05:56:09;;;;;;;21.00;10.40;;;3.20;99.90;;;;;;5067008;28;20620;-64
2022/01/11 05:58:35;;;;;;;22.43;12.17;;;3.20;99.90;;;;;;5087198;28;20276;-64
2022/01/11 06:01:01;;;;;;;21.40;9.13;;;3.30;99.90;;;;;;5075754;28;20185;-64
2022/01/11 06:03:27;;;;;;;18.07;8.90;;;3.40;99.90;;;;;;5075755;28;20209;-63
2022/01/11 06:05:53;;;;;;;17.50;9.07;;;3.50;99.90;;;;;;5068478;28;20183;-67
2022/01/11 06:08:18;;;;;;;21.40;9.70;;;3.40;99.90;;;;;;5075655;28;20258;-63
2022/01/11 06:10:45;;;;;;;19.10;11.50;;;3.20;99.90;;;;;;5092478;28;20196;-63
2022/01/11 06:13:11;;;;;;;20.90;10.70;;;3.10;99.90;;;;;;5094705;28;20193;-63
2022/01/11 06:15:38;;;;;;;18.13;9.77;;;3.10;99.90;;;;;;5059471;28;20196;-64
2022/01/11 06:18:07;;;;;;;19.60;10.00;;;3.20;99.90;;;;;;5094592;28;20699;-64
2022/01/11 06:20:33;;;;;;;14.63;8.13;;;3.40;99.90;;;;;;5076623;28;20196;-64
2022/01/11 06:22:59;;;;;;;21.40;9.47;;;3.50;99.90;;;;;;5094883;28;20619;-63
2022/01/11 06:25:25;;;;;;;20.23;11.70;;;3.30;99.90;;;;;;5093702;28;20180;-63
2022/01/11 06:27:51;;;;;;;17.87;9.00;;;3.40;99.90;;;;;;5058531;28;20182;-63
2022/01/11 06:30:18;;;;;;;17.07;9.23;;;3.40;99.90;;;;;;5094716;28;20263;-63
2022/01/11 06:32:44;;;;;;;18.43;8.83;;;3.30;99.90;;;;;;5077358;28;20193;-63
2022/01/11 06:35:12;;;;;;;22.13;9.93;;;3.40;99.90;;;;;;5072765;28;20203;-63
2022/01/11 06:37:38;;;;;;;19.10;10.00;;;3.40;99.90;;;;;;5056904;28;20675;-64
2022/01/11 06:40:04;;;;;;;18.93;8.47;;;3.30;99.90;;;;;;5075032;28;20275;-64
2022/01/11 06:42:31;;;;;;;18.73;9.00;;;3.40;99.90;;;;;;5080435;28;20208;-64
2022/01/11 06:44:57;;;;;;;18.90;10.07;;;3.40;99.90;;;;;;5094259;28;20181;-64
2022/01/11 06:47:23;;;;;;;16.67;9.60;;;3.40;99.90;;;;;;5092988;28;20215;-64
2022/01/11 06:49:49;;;;;;;17.10;9.63;;;3.60;99.90;;;;;;5094474;28;20181;-64
2022/01/11 06:52:15;;;;;;;18.47;8.57;;;3.70;99.90;;;;;;5075122;28;20717;-64
2022/01/11 06:54:41;;;;;;;21.90;9.20;;;3.50;99.90;;;;;;5057136;28;20186;-64
2022/01/11 06:57:10;;;;;;;26.83;11.03;;;3.40;99.90;;;;;;5074999;28;20205;-64
2022/01/11 06:59:37;;;;;;;17.03;9.20;;;3.50;99.90;;;;;;5057418;28;20220;-63
2022/01/11 07:02:06;;;;;;;19.23;10.40;;;3.40;99.90;;;;;;5072886;28;20185;-63
2022/01/11 07:04:33;;;;;;;17.77;10.20;;;3.40;99.90;;;;;;5075522;28;20208;-64
2022/01/11 07:06:59;;;;;;;20.03;10.47;;;3.80;99.90;;;;;;5069883;28;20181;-64
2022/01/11 07:09:28;;;;;;;19.27;10.17;;;3.90;99.90;;;;;;5074528;28;20287;-63
2022/01/11 07:11:53;;;;;;;24.40;10.47;;;3.70;99.90;;;;;;5082476;28;20235;-63
2022/01/11 07:14:19;;;;;;;19.27;10.57;;;3.70;99.90;;;;;;5058585;28;20216;-63
2022/01/11 07:16:48;;;;;;;26.60;14.70;;;3.60;99.90;;;;;;5083420;28;20195;-67
2022/01/11 07:19:16;;;;;;;15.80;9.10;;;3.70;99.90;;;;;;5080485;28;20185;-63
2022/01/11 07:21:44;;;;;;;21.90;10.80;;;3.60;99.90;;;;;;5080070;28;20190;-63
2022/01/11 07:24:10;;;;;;;22.07;9.97;;;3.60;99.90;;;;;;5070569;28;20204;-64
2022/01/11 07:26:36;;;;;;;19.87;9.57;;;3.70;99.90;;;;;;5074878;28;20283;-63
2022/01/11 07:29:05;;;;;;;20.60;10.47;;;3.70;99.90;;;;;;5073144;28;22232;-63
2022/01/11 07:31:31;;;;;;;19.57;9.37;;;3.70;99.90;;;;;;5074191;28;20181;-64
2022/01/11 07:33:57;;;;;;;19.30;10.27;;;3.80;99.90;;;;;;5056352;28;20546;-64
2022/01/11 07:36:23;;;;;;;16.97;9.57;;;3.70;99.90;;;;;;5055583;28;20189;-69
2022/01/11 07:38:51;;;;;;;18.20;10.57;;;3.80;99.90;;;;;;5074157;28;20187;-63
2022/01/11 07:41:17;;;;;;;24.57;10.33;;;3.80;99.90;;;;;;5081101;28;20189;-63
2022/01/11 07:43:43;;;;;;;23.43;9.90;;;3.80;99.90;;;;;;5090676;28;20204;-63
2022/01/11 07:46:09;;;;;;;19.00;9.30;;;3.90;99.90;;;;;;5074446;28;20181;-64
2022/01/11 07:48:34;;;;;;;21.30;10.10;;;3.80;99.90;;;;;;5081152;28;20227;-66
2022/01/11 07:51:00;;;;;;;14.40;8.20;;;3.60;99.90;;;;;;5074293;28;20193;-64
2022/01/11 07:53:26;;;;;;;23.17;11.03;;;3.60;99.90;;;;;;5083226;28;20630;-64
2022/01/11 07:55:51;;;;;;;20.97;10.23;;;3.60;99.90;;;;;;5068702;28;20230;-63
2022/01/11 07:58:17;;;;;;;21.17;10.67;;;3.70;99.90;;;;;;5091463;28;20563;-63
2022/01/11 08:00:43;;;;;;;16.57;9.60;;;4.00;99.90;;;;;;5060566;28;20285;-63
2022/01/11 08:03:09;;;;;;;22.10;10.53;;;4.00;99.90;;;;;;5056982;28;20240;-63
2022/01/11 08:05:35;;;;;;;21.73;10.87;;;4.00;99.90;;;;;;5075052;28;20211;-64
2022/01/11 08:08:00;;;;;;;22.13;11.07;;;3.90;99.90;;;;;;5093609;28;20177;-63
2022/01/11 08:10:26;;;;;;;15.93;10.67;;;3.90;99.90;;;;;;5092393;28;20557;-63
2022/01/11 08:12:52;;;;;;;20.47;10.70;;;3.80;99.90;;;;;;5089253;28;20199;-64
2022/01/11 08:15:18;;;;;;;28.73;13.80;;;3.90;99.90;;;;;;5073391;28;20548;-63
2022/01/11 08:17:44;;;;;;;23.57;11.67;;;4.00;99.90;;;;;;5091256;28;20189;-64
2022/01/11 08:20:10;;;;;;;25.63;12.90;;;3.90;99.90;;;;;;5074191;28;20241;-64
2022/01/11 08:22:36;;;;;;;31.87;12.07;;;4.00;99.90;;;;;;5061622;28;20579;-63
2022/01/11 08:25:03;;;;;;;18.83;11.13;;;4.10;99.90;;;;;;5092939;28;20181;-65
2022/01/11 08:27:29;;;;;;;23.37;11.63;;;4.00;99.90;;;;;;5055492;28;20704;-64
2022/01/11 08:29:54;;;;;;;21.60;10.70;;;4.00;99.90;;;;;;5089148;28;20264;-63
2022/01/11 08:32:20;;;;;;;25.10;10.70;;;4.00;99.90;;;;;;5076274;28;20264;-64
2022/01/11 08:34:46;;;;;;;20.97;10.60;;;3.80;99.90;;;;;;5092061;28;20216;-64
2022/01/11 08:37:12;;;;;;;23.27;12.30;;;3.90;99.90;;;;;;5092030;28;20192;-64
2022/01/11 08:39:38;;;;;;;22.80;12.80;;;3.90;99.90;;;;;;5086789;28;20190;-65
2022/01/11 08:42:04;;;;;;;19.20;10.33;;;3.80;99.90;;;;;;5072849;28;20220;-64
2022/01/11 08:44:30;;;;;;;24.87;10.87;;;3.90;99.90;;;;;;5072821;28;20256;-64
2022/01/11 08:46:56;;;;;;;22.23;10.30;;;3.90;99.90;;;;;;5069745;28;20646;-64
2022/01/11 08:49:22;;;;;;;22.47;10.00;;;4.00;99.90;;;;;;5073009;28;20189;-64
2022/01/11 08:51:48;;;;;;;19.23;9.83;;;3.90;99.90;;;;;;5086511;28;20183;-64
2022/01/11 08:54:15;;;;;;;18.67;10.80;;;3.90;99.90;;;;;;5087903;28;20641;-64
2022/01/11 08:56:41;;;;;;;25.43;9.80;;;4.00;99.90;;;;;;5074088;28;20185;-64
2022/01/11 08:59:07;;;;;;;14.77;9.07;;;4.30;99.90;;;;;;5092103;28;20918;-64
2022/01/11 09:01:36;;;;;;;17.47;10.17;;;4.30;99.90;;;;;;5090951;28;22097;-64
2022/01/11 09:04:02;;;;;;;16.90;9.40;;;4.40;99.90;;;;;;5074333;28;20843;-65
2022/01/11 09:06:28;;;;;;;19.97;9.97;;;4.80;99.90;;;;;;5092623;28;20189;-64
2022/01/11 09:08:54;;;;;;;21.40;9.97;;;5.10;99.90;;;;;;5079284;28;20258;-64
2022/01/11 09:11:20;;;;;;;18.90;10.40;;;5.10;99.90;;;;;;5089316;28;20197;-64
2022/01/11 09:13:47;;;;;;;22.70;9.87;;;5.10;99.90;;;;;;5090774;28;20695;-64
2022/01/11 09:16:13;;;;;;;18.60;9.57;;;5.00;99.90;;;;;;5059992;28;20567;-64
2022/01/11 09:18:39;;;;;;;22.87;10.07;;;5.10;99.90;;;;;;5069027;28;20639;-64
2022/01/11 09:21:05;;;;;;;18.30;10.27;;;5.30;99.90;;;;;;5090748;28;20268;-64
2022/01/11 09:23:31;;;;;;;20.77;10.33;;;5.40;99.90;;;;;;5073371;28;20217;-69
2022/01/11 09:25:57;;;;;;;19.97;9.93;;;5.50;99.90;;;;;;5091596;28;20189;-65
2022/01/11 09:28:23;;;;;;;22.60;10.30;;;5.50;99.90;;;;;;5092354;28;20298;-64
2022/01/11 09:30:51;;;;;;;20.57;11.07;;;5.20;99.90;;;;;;5091681;28;20275;-64
2022/01/11 09:33:16;;;;;;;17.37;10.43;;;5.40;99.90;;;;;;5077893;28;20224;-64
2022/01/11 09:35:43;;;;;;;21.37;11.33;;;5.50;99.90;;;;;;5086945;28;20545;-64
2022/01/11 09:38:09;;;;;;;22.13;9.43;;;5.50;99.90;;;;;;5090798;28;20219;-64
2022/01/11 09:40:34;;;;;;;19.03;10.83;;;5.60;99.90;;;;;;5091638;28;20216;-64
2022/01/11 09:43:00;;;;;;;25.00;9.57;;;5.90;99.90;;;;;;5091374;28;20274;-64
2022/01/11 09:45:26;;;;;;;24.17;10.00;;;6.00;99.90;;;;;;5088400;28;20196;-64
2022/01/11 09:47:52;;;;;;;19.17;9.67;;;6.10;99.90;;;;;;5054657;28;20178;-64
2022/01/11 09:50:19;;;;;;;22.97;11.37;;;6.20;99.90;;;;;;5072608;28;20185;-65
2022/01/11 09:52:45;;;;;;;19.53;10.10;;;6.50;99.90;;;;;;5088517;28;20238;-64
2022/01/11 09:55:13;;;;;;;23.27;10.63;;;6.70;99.90;;;;;;5055830;28;20180;-64
2022/01/11 09:57:41;;;;;;;18.13;10.47;;;6.80;99.90;;;;;;5075391;28;20519;-65
2022/01/11 10:00:10;;;;;;;18.13;9.87;;;6.90;99.90;;;;;;5090157;28;20188;-65
2022/01/11 10:02:36;;;;;;;22.83;9.63;;;7.20;99.90;;;;;;5095259;28;20204;-65
2022/01/11 10:05:08;;;;;;;21.50;9.23;;;7.60;99.90;;;;;;5079583;28;20181;-64
2022/01/11 10:07:40;;;;;;;19.87;9.80;;;7.80;99.90;;;;;;5090445;28;20664;-68
2022/01/11 10:10:14;;;;;;;19.87;9.80;;;7.80;99.90;;;;;;5081386;28;20185;-65
2022/01/11 10:12:43;;;;;;;18.93;9.33;;;7.60;99.90;;;;;;5094539;28;20232;-65
2022/01/11 10:15:08;;;;;;;16.20;9.27;;;7.70;99.90;;;;;;5094741;28;20548;-64
2022/01/11 10:17:41;;;;;;;14.77;8.37;;;7.80;99.90;;;;;;5059078;28;20185;-65
2022/01/11 10:20:13;;;;;;;17.50;8.73;;;7.50;99.90;;;;;;5095093;28;20180;-64
2022/01/11 10:22:53;;;;;;;18.90;8.83;;;7.30;99.90;;;;;;5094360;28;20204;-65
2022/01/11 10:25:19;;;;;;;15.87;8.07;;;7.30;99.90;;;;;;5063007;28;20181;-65
2022/01/11 10:28:03;;;;;;;18.17;8.37;;;7.20;99.90;;;;;;5078723;28;20185;-65
2022/01/11 10:30:30;;;;;;;16.27;9.10;;;7.00;99.90;;;;;;5084462;28;20241;-64
2022/01/11 10:33:00;;;;;;;20.53;8.23;;;7.30;99.90;;;;;;5094072;28;20280;-64
2022/01/11 10:35:29;;;;;;;13.77;7.83;;;7.50;99.90;;;;;;5087532;28;20231;-65
2022/01/11 10:37:59;;;;;;;13.30;7.33;;;7.40;99.90;;;;;;5080730;28;20645;-65
2022/01/11 10:40:36;;;;;;;18.47;8.30;;;7.60;99.90;;;;;;5094403;28;20661;-64
2022/01/11 10:43:17;;;;;;;13.63;7.87;;;7.70;99.90;;;;;;5086297;28;20254;-65
2022/01/11 10:46:03;;;;;;;13.30;8.57;;;7.80;99.90;;;;;;5091504;28;20188;-65
2022/01/11 10:48:35;;;;;;;11.27;7.00;;;7.80;99.90;;;;;;5093194;28;20196;-65
2022/01/11 10:51:02;;;;;;;11.87;7.23;;;7.70;99.90;;;;;;5074839;28;20169;-65
2022/01/11 10:53:38;;;;;;;13.57;6.93;;;7.60;99.90;;;;;;5057181;28;20250;-64
2022/01/11 10:56:04;;;;;;;18.73;7.30;;;7.60;99.90;;;;;;5081925;28;20180;-64
2022/01/11 10:58:36;;;;;;;12.47;7.60;;;7.60;99.90;;;;;;5075575;28;20235;-65
2022/01/11 11:01:04;;;;;;;15.63;7.37;;;7.70;99.90;;;;;;5092664;28;20265;-65
2022/01/11 11:03:32;;;;;;;14.90;8.10;;;7.90;99.90;;;;;;5093125;28;20204;-65
2022/01/11 11:06:08;;;;;;;22.53;7.53;;;7.90;99.90;;;;;;5076158;28;20182;-65
2022/01/11 11:08:38;;;;;;;16.87;6.40;;;7.90;99.90;;;;;;5094394;28;20684;-65
2022/01/11 11:11:06;;;;;;;12.17;6.93;;;8.00;99.90;;;;;;5074340;28;20271;-68
2022/01/11 11:13:34;;;;;;;12.43;6.37;;;8.00;99.90;;;;;;5072935;28;20617;-65
2022/01/11 11:16:12;;;;;;;19.13;8.53;;;7.80;99.90;;;;;;5084218;28;20272;-65
2022/01/11 11:18:41;;;;;;;12.63;6.93;;;7.90;99.90;;;;;;5092357;28;20217;-65
2022/01/11 11:21:35;;;;;;;13.73;6.80;;;8.00;99.90;;;;;;5093516;28;20226;-66
2022/01/11 11:24:05;;;;;;;9.70;6.23;;;8.10;99.90;;;;;;5073803;28;20603;-66
2022/01/11 11:26:37;;;;;;;14.50;7.17;;;8.10;99.90;;;;;;5079002;28;20185;-66
2022/01/11 11:29:04;;;;;;;14.07;6.97;;;8.00;99.90;;;;;;5093628;28;20245;-66
2022/01/11 11:31:30;;;;;;;10.03;6.63;;;8.00;99.90;;;;;;5093039;28;20271;-65
2022/01/11 11:33:56;;;;;;;11.43;6.67;;;7.90;99.90;;;;;;5093553;28;20200;-65
2022/01/11 11:36:22;;;;;;;14.13;8.17;;;7.90;99.90;;;;;;5092936;28;20272;-65
2022/01/11 11:39:20;;;;;;;14.10;6.37;;;8.00;99.90;;;;;;5045996;28;20264;-66
2022/01/11 11:41:53;;;;;;;13.53;8.13;;;8.00;99.90;;;;;;5068242;28;20204;-66
2022/01/11 11:44:24;;;;;;;13.63;6.23;;;8.10;99.90;;;;;;5081437;28;20258;-65
2022/01/11 11:46:59;;;;;;;9.93;6.43;;;8.10;99.90;;;;;;5093166;28;20188;-65
2022/01/11 11:50:05;;;;;;;12.30;6.57;;;8.10;99.90;;;;;;5093097;28;20186;-66
2022/01/11 11:52:50;;;;;;;10.70;6.20;;;8.10;99.90;;;;;;5055459;28;20181;-65
2022/01/11 11:55:28;;;;;;;11.27;6.20;;;8.20;99.90;;;;;;5073637;28;20251;-65
2022/01/11 11:58:02;;;;;;;11.87;5.47;;;8.30;99.90;;;;;;5075651;28;20188;-66
2022/01/11 12:00:29;;;;;;;10.80;7.03;;;8.20;99.90;;;;;;5092309;28;20652;-65
2022/01/11 12:03:00;;;;;;;16.80;6.13;;;8.20;99.90;;;;;;5075741;28;20205;-65
2022/01/11 12:05:40;;;;;;;12.57;7.40;;;8.20;99.90;;;;;;5073700;28;20272;-66
2022/01/11 12:08:25;;;;;;;14.33;8.27;;;8.20;99.90;;;;;;5073294;28;20181;-67
2022/01/11 12:10:53;;;;;;;20.00;10.00;;;8.00;99.90;;;;;;5082882;28;20528;-65
2022/01/11 12:13:39;;;;;;;11.93;7.83;;;8.10;99.90;;;;;;5087109;28;20185;-65
2022/01/11 12:16:25;;;;;;;12.40;6.33;;;8.00;99.90;;;;;;5048430;28;20241;-65
2022/01/11 12:19:02;;;;;;;17.03;7.50;;;8.00;99.90;;;;;;5055805;28;20192;-66
2022/01/11 12:21:38;;;;;;;12.00;7.17;;;8.00;99.90;;;;;;5074574;28;20185;-65
2022/01/11 12:24:04;;;;;;;15.87;8.70;;;8.20;99.90;;;;;;5091880;28;20216;-65
2022/01/11 12:26:34;;;;;;;15.73;7.37;;;8.10;99.90;;;;;;5056907;28;20215;-66
2022/01/11 12:29:02;;;;;;;14.93;7.53;;;8.00;99.90;;;;;;5092129;28;20191;-65
2022/01/11 12:31:53;;;;;;;19.37;8.80;;;8.00;99.90;;;;;;5074434;28;20275;-65
2022/01/11 12:34:19;;;;;;;12.20;8.80;;;8.10;99.90;;;;;;5078830;28;20196;-65
2022/01/11 12:36:57;;;;;;;16.87;8.00;;;8.10;99.90;;;;;;5074087;28;20185;-65
2022/01/11 12:39:25;;;;;;;15.97;8.77;;;8.10;99.90;;;;;;5073173;28;20173;-65
2022/01/11 12:41:52;;;;;;;14.40;8.83;;;8.00;99.90;;;;;;5081635;28;20181;-65
2022/01/11 12:46:58;;;;;;;14.93;7.57;;;7.80;99.90;;;;;;5092903;28;20211;-65
2022/01/11 12:49:25;;;;;;;16.30;7.70;;;7.90;99.90;;;;;;5090886;28;20197;-65